sensor_id;sensor_type;location;lat;lon;timestamp;temperature;humidity
23335;DHT22;11839;48.598;8.870;2023-08-20T00:01:12;24.00;99.90
23335;DHT22;11839;48.598;8.870;2023-08-20T00:03:41;24.40;99.90
23335;DHT22;11839;48.598;8.870;2023-08-20T00:06:09;24.50;99.90
23335;DHT22;11839;48.598;8.870;2023-08-20T00:08:36;24.50;99.90
23335;DHT22;11839;48.598;8.870;2023-08-20T00:11:03;24.50;99.90
23335;DHT22;11839;48.598;8.870;2023-08-20T00:13:32;24.40;99.90
23335;DHT22;11839;48.598;8.870;2023-08-20T00:15:59;24.30;99.90
23335;DHT22;11839;48.598;8.870;2023-08-20T00:18:27;23.90;99.90
23335;DHT22;11839;48.598;8.870;2023-08-20T00:20:54;24.00;99.90
23335;DHT22;11839;48.598;8.870;2023-08-20T00:23:21;24.30;99.90
23335;DHT22;11839;48.598;8.870;2023-08-20T00:25:49;24.40;99.90
23335;DHT22;11839;48.598;8.870;2023-08-20T00:28:16;24.20;99.90
23335;DHT22;11839;48.598;8.870;2023-08-20T00:30:44;24.30;99.90
23335;DHT22;11839;48.598;8.870;2023-08-20T00:33:10;24.30;99.90
23335;DHT22;11839;48.598;8.870;2023-08-20T00:35:37;24.70;99.90
23335;DHT22;11839;48.598;8.870;2023-08-20T00:38:05;24.90;99.90
23335;DHT22;11839;48.598;8.870;2023-08-20T00:40:31;24.90;99.90
23335;DHT22;11839;48.598;8.870;2023-08-20T00:42:59;24.50;99.90
23335;DHT22;11839;48.598;8.870;2023-08-20T00:45:27;24.50;99.90
23335;DHT22;11839;48.598;8.870;2023-08-20T00:47:55;24.60;99.90
23335;DHT22;11839;48.598;8.870;2023-08-20T00:50:23;24.10;99.90
23335;DHT22;11839;48.598;8.870;2023-08-20T00:52:49;23.70;99.90
23335;DHT22;11839;48.598;8.870;2023-08-20T00:55:16;23.50;99.90
23335;DHT22;11839;48.598;8.870;2023-08-20T00:57:43;23.50;99.90
23335;DHT22;11839;48.598;8.870;2023-08-20T01:00:11;23.70;99.90
23335;DHT22;11839;48.598;8.870;2023-08-20T01:02:39;23.80;99.90
23335;DHT22;11839;48.598;8.870;2023-08-20T01:05:09;24.00;99.90
23335;DHT22;11839;48.598;8.870;2023-08-20T01:07:57;24.10;99.90
23335;DHT22;11839;48.598;8.870;2023-08-20T01:10:31;24.20;99.90
23335;DHT22;11839;48.598;8.870;2023-08-20T01:13:00;24.30;99.90
23335;DHT22;11839;48.598;8.870;2023-08-20T01:15:27;24.60;99.90
23335;DHT22;11839;48.598;8.870;2023-08-20T01:17:54;24.50;99.90
23335;DHT22;11839;48.598;8.870;2023-08-20T01:20:26;24.50;99.90
23335;DHT22;11839;48.598;8.870;2023-08-20T01:23:29;24.40;99.90
23335;DHT22;11839;48.598;8.870;2023-08-20T01:26:13;24.30;99.90
23335;DHT22;11839;48.598;8.870;2023-08-20T01:28:43;24.00;99.90
23335;DHT22;11839;48.598;8.870;2023-08-20T01:31:10;23.80;99.90
23335;DHT22;11839;48.598;8.870;2023-08-20T01:33:39;23.80;99.90
23335;DHT22;11839;48.598;8.870;2023-08-20T01:36:08;23.80;99.90
23335;DHT22;11839;48.598;8.870;2023-08-20T01:38:35;23.50;99.90
23335;DHT22;11839;48.598;8.870;2023-08-20T01:41:02;23.30;99.90
23335;DHT22;11839;48.598;8.870;2023-08-20T01:43:29;23.20;99.90
23335;DHT22;11839;48.598;8.870;2023-08-20T01:45:58;23.40;99.90
23335;DHT22;11839;48.598;8.870;2023-08-20T01:48:25;23.60;99.90
23335;DHT22;11839;48.598;8.870;2023-08-20T01:50:54;23.90;99.90
23335;DHT22;11839;48.598;8.870;2023-08-20T01:53:21;23.90;99.90
23335;DHT22;11839;48.598;8.870;2023-08-20T01:55:47;23.80;99.90
23335;DHT22;11839;48.598;8.870;2023-08-20T01:58:14;23.90;99.90
23335;DHT22;11839;48.598;8.870;2023-08-20T02:00:41;23.70;99.90
23335;DHT22;11839;48.598;8.870;2023-08-20T02:03:09;23.80;99.90
23335;DHT22;11839;48.598;8.870;2023-08-20T02:05:36;23.60;99.90
23335;DHT22;11839;48.598;8.870;2023-08-20T02:08:04;23.40;99.90
23335;DHT22;11839;48.598;8.870;2023-08-20T02:10:30;23.50;99.90
23335;DHT22;11839;48.598;8.870;2023-08-20T02:12:57;23.70;99.90
23335;DHT22;11839;48.598;8.870;2023-08-20T02:15:24;23.50;99.90
23335;DHT22;11839;48.598;8.870;2023-08-20T02:17:51;23.70;99.90
23335;DHT22;11839;48.598;8.870;2023-08-20T02:20:20;23.70;99.90
23335;DHT22;11839;48.598;8.870;2023-08-20T02:22:46;23.30;99.90
23335;DHT22;11839;48.598;8.870;2023-08-20T02:25:13;23.20;99.90
23335;DHT22;11839;48.598;8.870;2023-08-20T02:27:40;22.80;99.90
23335;DHT22;11839;48.598;8.870;2023-08-20T02:30:08;22.70;99.90
23335;DHT22;11839;48.598;8.870;2023-08-20T02:32:35;22.50;99.90
23335;DHT22;11839;48.598;8.870;2023-08-20T02:35:02;22.40;99.90
23335;DHT22;11839;48.598;8.870;2023-08-20T02:37:32;22.80;99.90
23335;DHT22;11839;48.598;8.870;2023-08-20T02:39:59;23.00;99.90
23335;DHT22;11839;48.598;8.870;2023-08-20T02:42:25;22.50;99.90
23335;DHT22;11839;48.598;8.870;2023-08-20T02:44:52;22.50;99.90
23335;DHT22;11839;48.598;8.870;2023-08-20T02:47:19;22.70;99.90
23335;DHT22;11839;48.598;8.870;2023-08-20T02:49:46;22.50;99.90
23335;DHT22;11839;48.598;8.870;2023-08-20T02:52:12;22.50;99.90
23335;DHT22;11839;48.598;8.870;2023-08-20T02:54:40;22.50;99.90
23335;DHT22;11839;48.598;8.870;2023-08-20T02:57:07;22.40;99.90
23335;DHT22;11839;48.598;8.870;2023-08-20T02:59:34;22.70;99.90
23335;DHT22;11839;48.598;8.870;2023-08-20T03:02:01;23.00;99.90
23335;DHT22;11839;48.598;8.870;2023-08-20T03:04:29;22.80;99.90
23335;DHT22;11839;48.598;8.870;2023-08-20T03:06:55;22.90;99.90
23335;DHT22;11839;48.598;8.870;2023-08-20T03:09:22;23.20;99.90
23335;DHT22;11839;48.598;8.870;2023-08-20T03:11:51;23.40;99.90
23335;DHT22;11839;48.598;8.870;2023-08-20T03:14:17;23.00;99.90
23335;DHT22;11839;48.598;8.870;2023-08-20T03:16:44;23.00;99.90
23335;DHT22;11839;48.598;8.870;2023-08-20T03:19:11;23.30;99.90
23335;DHT22;11839;48.598;8.870;2023-08-20T03:21:38;23.50;99.90
23335;DHT22;11839;48.598;8.870;2023-08-20T03:24:05;23.60;99.90
23335;DHT22;11839;48.598;8.870;2023-08-20T03:26:32;23.50;99.90
23335;DHT22;11839;48.598;8.870;2023-08-20T03:29:01;23.50;99.90
23335;DHT22;11839;48.598;8.870;2023-08-20T03:31:28;23.60;99.90
23335;DHT22;11839;48.598;8.870;2023-08-20T03:33:55;23.70;99.90
23335;DHT22;11839;48.598;8.870;2023-08-20T03:36:22;23.80;99.90
23335;DHT22;11839;48.598;8.870;2023-08-20T03:38:49;23.80;99.90
23335;DHT22;11839;48.598;8.870;2023-08-20T03:41:16;23.60;99.90
23335;DHT22;11839;48.598;8.870;2023-08-20T03:43:42;23.70;99.90
23335;DHT22;11839;48.598;8.870;2023-08-20T03:46:10;23.60;99.90
23335;DHT22;11839;48.598;8.870;2023-08-20T03:48:37;23.30;99.90
23335;DHT22;11839;48.598;8.870;2023-08-20T03:51:04;23.40;99.90
23335;DHT22;11839;48.598;8.870;2023-08-20T03:53:31;23.20;99.90
23335;DHT22;11839;48.598;8.870;2023-08-20T03:55:57;23.00;99.90
23335;DHT22;11839;48.598;8.870;2023-08-20T03:58:24;23.20;99.90
23335;DHT22;11839;48.598;8.870;2023-08-20T04:00:51;23.50;99.90
23335;DHT22;11839;48.598;8.870;2023-08-20T04:03:19;23.50;99.90
23335;DHT22;11839;48.598;8.870;2023-08-20T04:05:46;23.50;99.90
23335;DHT22;11839;48.598;8.870;2023-08-20T04:08:13;23.40;99.90
23335;DHT22;11839;48.598;8.870;2023-08-20T04:10:43;23.30;99.90
23335;DHT22;11839;48.598;8.870;2023-08-20T04:13:11;23.40;99.90
23335;DHT22;11839;48.598;8.870;2023-08-20T04:15:39;23.60;99.90
23335;DHT22;11839;48.598;8.870;2023-08-20T04:18:06;23.60;99.90
23335;DHT22;11839;48.598;8.870;2023-08-20T04:20:34;23.40;99.90
23335;DHT22;11839;48.598;8.870;2023-08-20T04:23:01;23.80;99.90
23335;DHT22;11839;48.598;8.870;2023-08-20T04:25:28;23.50;99.90
23335;DHT22;11839;48.598;8.870;2023-08-20T04:27:54;22.70;99.90
23335;DHT22;11839;48.598;8.870;2023-08-20T04:30:21;22.30;99.90
23335;DHT22;11839;48.598;8.870;2023-08-20T04:32:48;22.30;99.90
23335;DHT22;11839;48.598;8.870;2023-08-20T04:35:15;23.00;99.90
23335;DHT22;11839;48.598;8.870;2023-08-20T04:37:43;23.10;99.90
23335;DHT22;11839;48.598;8.870;2023-08-20T04:40:10;23.20;99.90
23335;DHT22;11839;48.598;8.870;2023-08-20T04:42:38;23.20;99.90
23335;DHT22;11839;48.598;8.870;2023-08-20T04:45:05;22.90;99.90
23335;DHT22;11839;48.598;8.870;2023-08-20T04:47:32;22.80;99.90
23335;DHT22;11839;48.598;8.870;2023-08-20T04:49:59;22.60;99.90
23335;DHT22;11839;48.598;8.870;2023-08-20T04:52:26;22.60;99.90
23335;DHT22;11839;48.598;8.870;2023-08-20T04:54:54;22.20;99.90
23335;DHT22;11839;48.598;8.870;2023-08-20T04:57:21;21.90;99.90
23335;DHT22;11839;48.598;8.870;2023-08-20T04:59:48;21.70;99.90
23335;DHT22;11839;48.598;8.870;2023-08-20T05:02:15;22.20;99.90
23335;DHT22;11839;48.598;8.870;2023-08-20T05:04:42;22.20;99.90
23335;DHT22;11839;48.598;8.870;2023-08-20T05:07:09;21.80;99.90
23335;DHT22;11839;48.598;8.870;2023-08-20T05:09:35;21.80;99.90
23335;DHT22;11839;48.598;8.870;2023-08-20T05:12:04;22.40;99.90
23335;DHT22;11839;48.598;8.870;2023-08-20T05:14:31;22.80;99.90
23335;DHT22;11839;48.598;8.870;2023-08-20T05:16:58;23.20;99.90
23335;DHT22;11839;48.598;8.870;2023-08-20T05:19:25;23.30;99.90
23335;DHT22;11839;48.598;8.870;2023-08-20T05:21:52;23.10;99.90
23335;DHT22;11839;48.598;8.870;2023-08-20T05:24:21;23.20;99.90
23335;DHT22;11839;48.598;8.870;2023-08-20T05:26:50;23.10;99.90
23335;DHT22;11839;48.598;8.870;2023-08-20T05:29:31;23.20;99.90
23335;DHT22;11839;48.598;8.870;2023-08-20T05:31:57;22.80;99.90
23335;DHT22;11839;48.598;8.870;2023-08-20T05:34:24;22.90;99.90
23335;DHT22;11839;48.598;8.870;2023-08-20T05:36:51;23.20;99.90
23335;DHT22;11839;48.598;8.870;2023-08-20T05:39:18;23.30;99.90
23335;DHT22;11839;48.598;8.870;2023-08-20T05:41:44;23.50;99.90
23335;DHT22;11839;48.598;8.870;2023-08-20T05:44:11;23.60;99.90
23335;DHT22;11839;48.598;8.870;2023-08-20T05:46:39;23.80;99.90
23335;DHT22;11839;48.598;8.870;2023-08-20T05:49:06;23.90;99.90
23335;DHT22;11839;48.598;8.870;2023-08-20T05:51:33;24.20;99.90
23335;DHT22;11839;48.598;8.870;2023-08-20T05:54:00;24.10;99.90
23335;DHT22;11839;48.598;8.870;2023-08-20T05:56:27;24.10;99.90
23335;DHT22;11839;48.598;8.870;2023-08-20T05:58:53;24.00;99.90
23335;DHT22;11839;48.598;8.870;2023-08-20T06:01:21;24.00;99.90
23335;DHT22;11839;48.598;8.870;2023-08-20T06:03:49;24.00;99.90
23335;DHT22;11839;48.598;8.870;2023-08-20T06:06:16;24.10;99.90
23335;DHT22;11839;48.598;8.870;2023-08-20T06:08:42;24.30;99.90
23335;DHT22;11839;48.598;8.870;2023-08-20T06:11:09;24.50;99.90
23335;DHT22;11839;48.598;8.870;2023-08-20T06:13:36;24.60;99.90
23335;DHT22;11839;48.598;8.870;2023-08-20T06:16:03;24.60;99.90
23335;DHT22;11839;48.598;8.870;2023-08-20T06:18:30;24.80;99.90
23335;DHT22;11839;48.598;8.870;2023-08-20T06:21:00;24.90;99.90
23335;DHT22;11839;48.598;8.870;2023-08-20T06:23:27;25.20;99.90
23335;DHT22;11839;48.598;8.870;2023-08-20T06:25:54;25.40;99.90
23335;DHT22;11839;48.598;8.870;2023-08-20T06:28:21;25.30;99.90
23335;DHT22;11839;48.598;8.870;2023-08-20T06:30:48;25.40;99.90
23335;DHT22;11839;48.598;8.870;2023-08-20T06:33:15;25.70;99.90
23335;DHT22;11839;48.598;8.870;2023-08-20T06:35:41;26.00;99.90
23335;DHT22;11839;48.598;8.870;2023-08-20T06:38:09;26.30;99.90
23335;DHT22;11839;48.598;8.870;2023-08-20T06:40:37;26.30;99.90
23335;DHT22;11839;48.598;8.870;2023-08-20T06:43:04;26.10;99.90
23335;DHT22;11839;48.598;8.870;2023-08-20T06:45:31;26.10;99.90
23335;DHT22;11839;48.598;8.870;2023-08-20T06:47:57;26.20;99.90
23335;DHT22;11839;48.598;8.870;2023-08-20T06:50:24;25.70;99.90
23335;DHT22;11839;48.598;8.870;2023-08-20T06:52:51;25.30;99.90
23335;DHT22;11839;48.598;8.870;2023-08-20T06:55:20;25.30;99.90
23335;DHT22;11839;48.598;8.870;2023-08-20T06:57:47;25.50;99.90
23335;DHT22;11839;48.598;8.870;2023-08-20T07:00:14;25.70;99.90
23335;DHT22;11839;48.598;8.870;2023-08-20T07:02:41;26.30;99.90
23335;DHT22;11839;48.598;8.870;2023-08-20T07:05:08;26.80;99.90
23335;DHT22;11839;48.598;8.870;2023-08-20T07:07:40;26.80;99.90
23335;DHT22;11839;48.598;8.870;2023-08-20T07:10:07;27.20;99.90
23335;DHT22;11839;48.598;8.870;2023-08-20T07:12:35;27.50;99.90
23335;DHT22;11839;48.598;8.870;2023-08-20T07:15:02;27.70;99.90
23335;DHT22;11839;48.598;8.870;2023-08-20T07:17:29;27.70;99.90
23335;DHT22;11839;48.598;8.870;2023-08-20T07:19:56;27.60;99.90
23335;DHT22;11839;48.598;8.870;2023-08-20T07:22:23;27.70;99.90
23335;DHT22;11839;48.598;8.870;2023-08-20T07:24:53;27.90;99.90
23335;DHT22;11839;48.598;8.870;2023-08-20T07:27:20;27.90;99.90
23335;DHT22;11839;48.598;8.870;2023-08-20T07:29:48;28.20;99.90
23335;DHT22;11839;48.598;8.870;2023-08-20T07:32:15;28.10;99.90
23335;DHT22;11839;48.598;8.870;2023-08-20T07:34:41;28.50;99.90
23335;DHT22;11839;48.598;8.870;2023-08-20T07:37:08;28.90;99.90
23335;DHT22;11839;48.598;8.870;2023-08-20T07:39:35;29.10;99.90
23335;DHT22;11839;48.598;8.870;2023-08-20T07:42:02;29.10;99.90
23335;DHT22;11839;48.598;8.870;2023-08-20T07:44:29;29.20;99.90
23335;DHT22;11839;48.598;8.870;2023-08-20T07:46:57;29.60;99.90
23335;DHT22;11839;48.598;8.870;2023-08-20T07:49:24;29.90;99.90
23335;DHT22;11839;48.598;8.870;2023-08-20T07:51:50;29.70;99.90
23335;DHT22;11839;48.598;8.870;2023-08-20T07:54:19;29.80;99.90
23335;DHT22;11839;48.598;8.870;2023-08-20T07:56:46;29.90;99.90
23335;DHT22;11839;48.598;8.870;2023-08-20T07:59:16;30.40;99.90
23335;DHT22;11839;48.598;8.870;2023-08-20T08:01:43;29.70;99.90
23335;DHT22;11839;48.598;8.870;2023-08-20T08:04:11;29.70;99.90
23335;DHT22;11839;48.598;8.870;2023-08-20T08:06:37;29.60;99.90
23335;DHT22;11839;48.598;8.870;2023-08-20T08:09:26;28.60;99.90
23335;DHT22;11839;48.598;8.870;2023-08-20T08:11:53;28.00;99.90
23335;DHT22;11839;48.598;8.870;2023-08-20T08:14:22;28.30;99.90
23335;DHT22;11839;48.598;8.870;2023-08-20T08:16:49;28.60;99.90
23335;DHT22;11839;48.598;8.870;2023-08-20T08:19:17;29.00;99.90
23335;DHT22;11839;48.598;8.870;2023-08-20T08:21:45;29.50;99.90
23335;DHT22;11839;48.598;8.870;2023-08-20T08:24:12;29.60;99.90
23335;DHT22;11839;48.598;8.870;2023-08-20T08:26:40;29.10;99.90
23335;DHT22;11839;48.598;8.870;2023-08-20T08:29:08;29.30;99.90
23335;DHT22;11839;48.598;8.870;2023-08-20T08:31:41;29.40;99.90
23335;DHT22;11839;48.598;8.870;2023-08-20T08:34:07;29.90;99.90
23335;DHT22;11839;48.598;8.870;2023-08-20T08:36:36;29.40;99.90
23335;DHT22;11839;48.598;8.870;2023-08-20T08:39:02;29.40;99.90
23335;DHT22;11839;48.598;8.870;2023-08-20T08:41:31;29.40;99.90
23335;DHT22;11839;48.598;8.870;2023-08-20T08:43:59;29.80;99.90
23335;DHT22;11839;48.598;8.870;2023-08-20T08:46:26;30.00;99.90
23335;DHT22;11839;48.598;8.870;2023-08-20T08:48:55;30.20;99.90
23335;DHT22;11839;48.598;8.870;2023-08-20T08:51:22;30.10;99.90
23335;DHT22;11839;48.598;8.870;2023-08-20T08:53:52;30.10;99.90
23335;DHT22;11839;48.598;8.870;2023-08-20T08:56:20;30.50;99.90
23335;DHT22;11839;48.598;8.870;2023-08-20T08:58:47;30.50;99.90
23335;DHT22;11839;48.598;8.870;2023-08-20T09:01:14;30.10;99.90
23335;DHT22;11839;48.598;8.870;2023-08-20T09:03:41;30.70;99.90
23335;DHT22;11839;48.598;8.870;2023-08-20T09:06:09;31.10;99.90
23335;DHT22;11839;48.598;8.870;2023-08-20T09:08:36;31.70;99.90
23335;DHT22;11839;48.598;8.870;2023-08-20T09:11:04;31.40;99.90
23335;DHT22;11839;48.598;8.870;2023-08-20T09:13:35;31.10;99.90
23335;DHT22;11839;48.598;8.870;2023-08-20T09:16:04;30.90;99.90
23335;DHT22;11839;48.598;8.870;2023-08-20T09:18:31;30.50;99.90
23335;DHT22;11839;48.598;8.870;2023-08-20T09:20:58;30.60;99.90
23335;DHT22;11839;48.598;8.870;2023-08-20T09:23:28;30.80;99.90
23335;DHT22;11839;48.598;8.870;2023-08-20T09:25:56;31.10;99.90
23335;DHT22;11839;48.598;8.870;2023-08-20T09:28:24;30.90;99.90
23335;DHT22;11839;48.598;8.870;2023-08-20T09:30:57;31.10;99.90
23335;DHT22;11839;48.598;8.870;2023-08-20T09:33:27;31.50;99.90
23335;DHT22;11839;48.598;8.870;2023-08-20T09:35:54;31.40;99.90
23335;DHT22;11839;48.598;8.870;2023-08-20T09:38:21;31.20;99.90
23335;DHT22;11839;48.598;8.870;2023-08-20T09:40:50;30.70;99.90
23335;DHT22;11839;48.598;8.870;2023-08-20T09:43:18;30.70;99.90
23335;DHT22;11839;48.598;8.870;2023-08-20T09:45:47;30.40;99.90
23335;DHT22;11839;48.598;8.870;2023-08-20T09:48:18;30.50;99.90
23335;DHT22;11839;48.598;8.870;2023-08-20T09:50:47;30.60;99.90
23335;DHT22;11839;48.598;8.870;2023-08-20T09:53:21;30.50;99.90
23335;DHT22;11839;48.598;8.870;2023-08-20T09:55:50;30.70;99.90
23335;DHT22;11839;48.598;8.870;2023-08-20T09:58:18;30.80;99.90
23335;DHT22;11839;48.598;8.870;2023-08-20T10:00:49;31.20;99.90
23335;DHT22;11839;48.598;8.870;2023-08-20T10:03:18;31.10;99.90
23335;DHT22;11839;48.598;8.870;2023-08-20T10:05:46;30.80;99.90
23335;DHT22;11839;48.598;8.870;2023-08-20T10:08:15;29.90;99.90
23335;DHT22;11839;48.598;8.870;2023-08-20T10:10:42;30.10;99.90
23335;DHT22;11839;48.598;8.870;2023-08-20T10:13:08;30.80;99.90
23335;DHT22;11839;48.598;8.870;2023-08-20T10:15:36;31.20;99.90
23335;DHT22;11839;48.598;8.870;2023-08-20T10:18:07;30.90;99.90
23335;DHT22;11839;48.598;8.870;2023-08-20T10:20:35;30.60;99.90
23335;DHT22;11839;48.598;8.870;2023-08-20T10:23:03;30.60;99.90
23335;DHT22;11839;48.598;8.870;2023-08-20T10:25:30;31.10;99.90
23335;DHT22;11839;48.598;8.870;2023-08-20T10:28:12;31.30;99.90
23335;DHT22;11839;48.598;8.870;2023-08-20T10:31:03;31.80;99.90
23335;DHT22;11839;48.598;8.870;2023-08-20T10:33:31;31.80;99.90
23335;DHT22;11839;48.598;8.870;2023-08-20T10:36:07;31.50;99.90
23335;DHT22;11839;48.598;8.870;2023-08-20T10:38:35;31.90;99.90
23335;DHT22;11839;48.598;8.870;2023-08-20T10:41:06;32.10;99.90
23335;DHT22;11839;48.598;8.870;2023-08-20T10:43:35;32.10;99.90
23335;DHT22;11839;48.598;8.870;2023-08-20T10:48:48;31.80;99.90
23335;DHT22;11839;48.598;8.870;2023-08-20T10:51:16;31.70;99.90
23335;DHT22;11839;48.598;8.870;2023-08-20T10:53:48;32.00;99.90
23335;DHT22;11839;48.598;8.870;2023-08-20T10:56:16;32.00;99.90
23335;DHT22;11839;48.598;8.870;2023-08-20T10:58:45;31.60;99.90
23335;DHT22;11839;48.598;8.870;2023-08-20T11:01:16;31.20;99.90
23335;DHT22;11839;48.598;8.870;2023-08-20T11:03:44;31.30;99.90
23335;DHT22;11839;48.598;8.870;2023-08-20T11:06:13;31.80;99.90
23335;DHT22;11839;48.598;8.870;2023-08-20T11:08:40;32.30;99.90
23335;DHT22;11839;48.598;8.870;2023-08-20T11:11:08;32.20;99.90
23335;DHT22;11839;48.598;8.870;2023-08-20T11:13:35;32.30;99.90
23335;DHT22;11839;48.598;8.870;2023-08-20T11:16:03;32.80;99.90
23335;DHT22;11839;48.598;8.870;2023-08-20T11:18:30;33.10;99.70
23335;DHT22;11839;48.598;8.870;2023-08-20T11:20:59;33.00;99.80
23335;DHT22;11839;48.598;8.870;2023-08-20T11:23:29;33.30;99.50
23335;DHT22;11839;48.598;8.870;2023-08-20T11:25:56;33.50;99.20
23335;DHT22;11839;48.598;8.870;2023-08-20T11:28:25;33.40;99.70
23335;DHT22;11839;48.598;8.870;2023-08-20T11:30:53;32.60;99.90
23335;DHT22;11839;48.598;8.870;2023-08-20T11:33:21;32.80;99.30
23335;DHT22;11839;48.598;8.870;2023-08-20T11:35:48;33.10;99.00
23335;DHT22;11839;48.598;8.870;2023-08-20T11:38:14;33.20;98.60
23335;DHT22;11839;48.598;8.870;2023-08-20T11:40:43;33.30;98.40
23335;DHT22;11839;48.598;8.870;2023-08-20T11:43:10;33.40;98.50
23335;DHT22;11839;48.598;8.870;2023-08-20T11:45:48;33.80;98.10
23335;DHT22;11839;48.598;8.870;2023-08-20T11:48:15;34.20;97.90
23335;DHT22;11839;48.598;8.870;2023-08-20T11:50:42;34.50;97.10
23335;DHT22;11839;48.598;8.870;2023-08-20T11:53:09;34.50;96.80
23335;DHT22;11839;48.598;8.870;2023-08-20T11:55:40;34.50;96.60
23335;DHT22;11839;48.598;8.870;2023-08-20T11:58:11;34.60;96.60
23335;DHT22;11839;48.598;8.870;2023-08-20T12:00:39;34.80;95.70
23335;DHT22;11839;48.598;8.870;2023-08-20T12:03:07;34.10;96.20
23335;DHT22;11839;48.598;8.870;2023-08-20T12:05:34;33.60;96.30
23335;DHT22;11839;48.598;8.870;2023-08-20T12:08:02;33.70;96.70
23335;DHT22;11839;48.598;8.870;2023-08-20T12:10:31;33.10;96.60
23335;DHT22;11839;48.598;8.870;2023-08-20T12:12:58;33.30;96.80
23335;DHT22;11839;48.598;8.870;2023-08-20T12:15:26;33.60;96.90
23335;DHT22;11839;48.598;8.870;2023-08-20T12:17:57;34.00;96.30
23335;DHT22;11839;48.598;8.870;2023-08-20T12:20:26;33.30;96.90
23335;DHT22;11839;48.598;8.870;2023-08-20T12:22:53;33.40;97.50
23335;DHT22;11839;48.598;8.870;2023-08-20T12:25:20;33.30;97.20
23335;DHT22;11839;48.598;8.870;2023-08-20T12:27:46;33.30;97.10
23335;DHT22;11839;48.598;8.870;2023-08-20T12:30:13;33.40;97.10
23335;DHT22;11839;48.598;8.870;2023-08-20T12:32:42;33.70;96.70
23335;DHT22;11839;48.598;8.870;2023-08-20T12:35:08;33.70;96.70
23335;DHT22;11839;48.598;8.870;2023-08-20T12:37:35;34.00;96.40
23335;DHT22;11839;48.598;8.870;2023-08-20T12:40:02;34.30;96.20
23335;DHT22;11839;48.598;8.870;2023-08-20T12:42:33;34.00;96.10
23335;DHT22;11839;48.598;8.870;2023-08-20T12:45:00;34.10;96.40
23335;DHT22;11839;48.598;8.870;2023-08-20T12:47:26;34.20;96.40
23335;DHT22;11839;48.598;8.870;2023-08-20T12:49:55;33.70;96.30
23335;DHT22;11839;48.598;8.870;2023-08-20T12:52:21;33.70;96.70
23335;DHT22;11839;48.598;8.870;2023-08-20T12:54:48;33.70;96.70
23335;DHT22;11839;48.598;8.870;2023-08-20T12:57:15;33.60;97.30
23335;DHT22;11839;48.598;8.870;2023-08-20T12:59:42;34.00;96.90
23335;DHT22;11839;48.598;8.870;2023-08-20T13:02:10;34.50;96.30
23335;DHT22;11839;48.598;8.870;2023-08-20T13:04:38;34.30;96.50
23335;DHT22;11839;48.598;8.870;2023-08-20T13:07:07;33.80;97.10
23335;DHT22;11839;48.598;8.870;2023-08-20T13:09:35;33.90;96.80
23335;DHT22;11839;48.598;8.870;2023-08-20T13:12:02;34.10;96.80
23335;DHT22;11839;48.598;8.870;2023-08-20T13:14:31;34.20;96.20
23335;DHT22;11839;48.598;8.870;2023-08-20T13:16:58;34.60;95.70
23335;DHT22;11839;48.598;8.870;2023-08-20T13:19:27;34.80;95.40
23335;DHT22;11839;48.598;8.870;2023-08-20T13:21:53;34.90;95.20
23335;DHT22;11839;48.598;8.870;2023-08-20T13:24:22;34.50;95.40
23335;DHT22;11839;48.598;8.870;2023-08-20T13:26:48;34.20;95.70
23335;DHT22;11839;48.598;8.870;2023-08-20T13:29:15;34.40;95.80
23335;DHT22;11839;48.598;8.870;2023-08-20T13:31:42;34.80;94.70
23335;DHT22;11839;48.598;8.870;2023-08-20T13:34:09;34.40;95.10
23335;DHT22;11839;48.598;8.870;2023-08-20T13:36:36;34.40;95.00
23335;DHT22;11839;48.598;8.870;2023-08-20T13:39:03;34.10;94.80
23335;DHT22;11839;48.598;8.870;2023-08-20T13:41:31;34.20;95.40
23335;DHT22;11839;48.598;8.870;2023-08-20T13:43:58;34.60;95.50
23335;DHT22;11839;48.598;8.870;2023-08-20T13:46:25;34.80;95.20
23335;DHT22;11839;48.598;8.870;2023-08-20T13:48:52;35.00;94.80
23335;DHT22;11839;48.598;8.870;2023-08-20T13:51:19;35.30;94.20
23335;DHT22;11839;48.598;8.870;2023-08-20T13:53:45;36.20;93.50
23335;DHT22;11839;48.598;8.870;2023-08-20T13:56:12;37.60;92.50
23335;DHT22;11839;48.598;8.870;2023-08-20T13:58:40;38.30;91.00
23335;DHT22;11839;48.598;8.870;2023-08-20T14:01:07;38.20;90.10
23335;DHT22;11839;48.598;8.870;2023-08-20T14:03:34;38.10;89.50
23335;DHT22;11839;48.598;8.870;2023-08-20T14:06:01;38.40;89.10
23335;DHT22;11839;48.598;8.870;2023-08-20T14:08:28;37.90;90.00
23335;DHT22;11839;48.598;8.870;2023-08-20T14:10:55;37.90;89.80
23335;DHT22;11839;48.598;8.870;2023-08-20T14:13:22;38.20;89.40
23335;DHT22;11839;48.598;8.870;2023-08-20T14:15:51;38.50;87.40
23335;DHT22;11839;48.598;8.870;2023-08-20T14:18:17;37.90;88.70
23335;DHT22;11839;48.598;8.870;2023-08-20T14:20:44;36.50;90.70
23335;DHT22;11839;48.598;8.870;2023-08-20T14:23:11;35.20;92.20
23335;DHT22;11839;48.598;8.870;2023-08-20T14:25:38;34.30;94.00
23335;DHT22;11839;48.598;8.870;2023-08-20T14:28:06;33.80;94.80
23335;DHT22;11839;48.598;8.870;2023-08-20T14:30:36;33.50;95.10
23335;DHT22;11839;48.598;8.870;2023-08-20T14:33:05;33.60;96.20
23335;DHT22;11839;48.598;8.870;2023-08-20T14:35:32;34.10;96.30
23335;DHT22;11839;48.598;8.870;2023-08-20T14:37:58;34.90;95.20
23335;DHT22;11839;48.598;8.870;2023-08-20T14:40:25;35.30;94.30
23335;DHT22;11839;48.598;8.870;2023-08-20T14:42:52;34.90;94.50
23335;DHT22;11839;48.598;8.870;2023-08-20T14:45:19;34.70;94.90
23335;DHT22;11839;48.598;8.870;2023-08-20T14:47:45;35.00;94.70
23335;DHT22;11839;48.598;8.870;2023-08-20T14:50:14;35.10;93.90
23335;DHT22;11839;48.598;8.870;2023-08-20T14:52:41;34.90;94.00
23335;DHT22;11839;48.598;8.870;2023-08-20T14:55:08;34.70;94.50
23335;DHT22;11839;48.598;8.870;2023-08-20T14:57:35;35.30;93.80
23335;DHT22;11839;48.598;8.870;2023-08-20T15:00:04;35.80;92.80
23335;DHT22;11839;48.598;8.870;2023-08-20T15:02:34;35.40;93.00
23335;DHT22;11839;48.598;8.870;2023-08-20T15:05:01;34.90;94.00
23335;DHT22;11839;48.598;8.870;2023-08-20T15:07:29;35.20;93.80
23335;DHT22;11839;48.598;8.870;2023-08-20T15:09:55;35.50;93.30
23335;DHT22;11839;48.598;8.870;2023-08-20T15:12:23;34.60;94.10
23335;DHT22;11839;48.598;8.870;2023-08-20T15:14:50;33.90;94.60
23335;DHT22;11839;48.598;8.870;2023-08-20T15:17:17;33.60;95.10
23335;DHT22;11839;48.598;8.870;2023-08-20T15:19:44;33.20;95.50
23335;DHT22;11839;48.598;8.870;2023-08-20T15:22:12;32.90;96.20
23335;DHT22;11839;48.598;8.870;2023-08-20T15:24:41;32.60;96.50
23335;DHT22;11839;48.598;8.870;2023-08-20T15:27:07;32.80;96.30
23335;DHT22;11839;48.598;8.870;2023-08-20T15:29:34;32.90;96.40
23335;DHT22;11839;48.598;8.870;2023-08-20T15:32:01;33.00;96.90
23335;DHT22;11839;48.598;8.870;2023-08-20T15:34:30;33.00;97.00
23335;DHT22;11839;48.598;8.870;2023-08-20T15:36:56;32.90;96.70